Terminal Aerodrome Forecast
Issued by NWS

Home | Current Version | Previous Version | Text Only | Print | Product List | Glossary Off
Versions: 1 2 3 4 5 6 7 8 9 10 11 12 13 14 15 16 17 18 19 20 21 22 23 24 25 26

000
FTUS43 KGRB 200520
TAFATW
TAF
KATW 200520Z 2006/2106 05013G18KT P6SM BKN120
     FM201400 08015G25KT P6SM SCT025 OVC050
      TEMPO 2016/2020 5SM -SHRA BKN025
     FM202000 07013G23KT 4SM RA BR OVC009
     FM210300 11009KT 5SM -SHRA BR OVC008=

USA.gov is the U.S. government's official web portal to all federal, state and local government web resources and services.